createdAt,value
2024-05-09T00:00:12.700Z,640.00
2024-05-09T00:01:09.518Z,640.00
2024-05-09T00:02:08.503Z,641.00
2024-05-09T00:03:10.064Z,641.00
2024-05-09T00:04:08.557Z,642.00
2024-05-09T00:05:08.591Z,642.00
2024-05-09T00:06:08.552Z,641.00
2024-05-09T00:07:08.492Z,640.00
2024-05-09T00:08:08.492Z,639.00
2024-05-09T00:09:08.458Z,639.00
2024-05-09T00:10:14.611Z,640.00
2024-05-09T00:11:09.510Z,640.00
2024-05-09T00:12:08.721Z,641.00
2024-05-09T00:13:08.811Z,640.00
2024-05-09T00:14:08.526Z,642.00
2024-05-09T00:15:08.498Z,639.00
2024-05-09T00:16:08.459Z,641.00
2024-05-09T00:17:08.478Z,640.00
2024-05-09T00:18:08.860Z,643.00
2024-05-09T00:19:08.560Z,636.00
2024-05-09T00:20:14.452Z,640.00
2024-05-09T00:21:09.769Z,640.00
2024-05-09T00:22:08.470Z,640.00
2024-05-09T00:23:08.993Z,640.00
2024-05-09T00:24:08.455Z,638.00
2024-05-09T00:25:08.469Z,637.00
2024-05-09T00:26:08.486Z,639.00
2024-05-09T00:27:09.064Z,635.00
2024-05-09T00:28:08.478Z,641.00
2024-05-09T00:29:08.526Z,635.00
2024-05-09T00:30:11.690Z,637.00
2024-05-09T00:31:09.480Z,637.00
2024-05-09T00:32:08.581Z,638.00
2024-05-09T00:33:10.093Z,639.00
2024-05-09T00:34:08.963Z,639.00
2024-05-09T00:35:08.811Z,635.00
2024-05-09T00:36:08.797Z,637.00
2024-05-09T00:37:08.859Z,638.00
2024-05-09T00:38:08.948Z,632.00
2024-05-09T00:39:08.937Z,631.00
2024-05-09T00:40:18.211Z,632.00
2024-05-09T00:41:10.064Z,632.00
2024-05-09T00:42:09.000Z,633.00
2024-05-09T00:43:09.043Z,632.00
2024-05-09T00:44:08.980Z,634.00
2024-05-09T00:45:08.993Z,632.00
2024-05-09T00:46:08.972Z,631.00
2024-05-09T00:47:09.129Z,634.00
2024-05-09T00:48:10.160Z,633.00
2024-05-09T00:49:09.092Z,633.00
2024-05-09T00:50:15.435Z,631.00
2024-05-09T00:51:10.128Z,632.00
2024-05-09T00:52:09.023Z,632.00
2024-05-09T00:53:09.059Z,632.00
2024-05-09T00:54:09.011Z,634.00
2024-05-09T00:55:08.983Z,637.00
2024-05-09T00:56:08.997Z,631.00
2024-05-09T00:57:09.044Z,632.00
2024-05-09T00:58:09.139Z,631.00
2024-05-09T00:59:09.033Z,628.00
2024-05-09T01:00:22.154Z,630.00
2024-05-09T01:01:10.049Z,630.00
2024-05-09T01:02:09.131Z,631.00
2024-05-09T01:03:10.924Z,631.00
2024-05-09T01:04:09.234Z,630.00
2024-05-09T01:05:09.079Z,631.00
2024-05-09T01:06:09.005Z,631.00
2024-05-09T01:07:09.010Z,630.00
2024-05-09T01:08:09.453Z,632.00
2024-05-09T01:09:09.009Z,630.00
2024-05-09T01:10:14.263Z,629.00
2024-05-09T01:11:10.163Z,629.00
2024-05-09T01:12:09.241Z,630.00
2024-05-09T01:13:09.031Z,632.00
2024-05-09T01:14:09.109Z,632.00
2024-05-09T01:15:09.033Z,629.00
2024-05-09T01:16:09.007Z,633.00
2024-05-09T01:17:09.104Z,635.00
2024-05-09T01:18:09.208Z,628.00
2024-05-09T01:19:09.138Z,631.00
2024-05-09T01:20:12.854Z,631.00
2024-05-09T01:21:10.276Z,631.00
2024-05-09T01:22:09.026Z,631.00
2024-05-09T01:23:09.420Z,631.00
2024-05-09T01:24:09.045Z,632.00
2024-05-09T01:25:09.045Z,629.00
2024-05-09T01:26:09.077Z,627.00
2024-05-09T01:27:09.065Z,629.00
2024-05-09T01:28:09.050Z,626.00
2024-05-09T01:29:09.163Z,628.00
2024-05-09T01:30:11.989Z,624.00
2024-05-09T01:31:10.038Z,625.00
2024-05-09T01:32:09.219Z,625.00
2024-05-09T01:33:10.907Z,627.00
2024-05-09T01:34:09.145Z,629.00
2024-05-09T01:35:09.115Z,629.00
2024-05-09T01:36:09.058Z,628.00
2024-05-09T01:37:09.080Z,626.00
2024-05-09T01:38:09.080Z,629.00
2024-05-09T01:39:09.076Z,628.00
2024-05-09T01:40:12.391Z,628.00
2024-05-09T01:41:10.121Z,628.00
2024-05-09T01:42:09.083Z,629.00
2024-05-09T01:43:10.437Z,630.00
2024-05-09T01:44:09.139Z,629.00
2024-05-09T01:45:09.142Z,628.00
2024-05-09T01:46:09.179Z,630.00
2024-05-09T01:47:09.439Z,628.00
2024-05-09T01:48:09.776Z,629.00
2024-05-09T01:49:09.418Z,629.00
2024-05-09T01:50:11.039Z,627.00
2024-05-09T01:51:09.485Z,625.00
2024-05-09T01:52:09.454Z,625.00
2024-05-09T01:53:09.913Z,623.00
2024-05-09T01:54:09.550Z,622.00
2024-05-09T01:55:09.611Z,625.00
2024-05-09T01:56:09.785Z,623.00
2024-05-09T01:57:09.718Z,626.00
2024-05-09T01:58:10.042Z,624.00
2024-05-09T01:59:09.860Z,627.00
2024-05-09T02:00:10.500Z,622.00
2024-05-09T02:01:09.968Z,625.00
2024-05-09T02:02:10.113Z,620.00
2024-05-09T02:03:11.530Z,626.00
2024-05-09T02:04:10.183Z,626.00
2024-05-09T02:05:10.138Z,626.00
2024-05-09T02:06:10.126Z,626.00
2024-05-09T02:07:09.998Z,626.00
2024-05-09T02:08:09.997Z,624.00
2024-05-09T02:09:09.988Z,619.00
2024-05-09T02:10:16.407Z,620.00
2024-05-09T02:11:11.123Z,621.00
2024-05-09T02:12:10.126Z,621.00
2024-05-09T02:13:09.996Z,623.00
2024-05-09T02:14:10.068Z,621.00
2024-05-09T02:15:10.017Z,621.00
2024-05-09T02:16:10.026Z,627.00
2024-05-09T02:17:10.122Z,621.00
2024-05-09T02:18:10.544Z,624.00
2024-05-09T02:19:10.158Z,623.00
2024-05-09T02:20:13.282Z,622.00
2024-05-09T02:21:11.148Z,622.00
2024-05-09T02:22:10.056Z,623.00
2024-05-09T02:23:10.184Z,623.00
2024-05-09T02:24:10.006Z,624.00
2024-05-09T02:25:10.060Z,623.00
2024-05-09T02:26:10.084Z,621.00
2024-05-09T02:27:10.028Z,622.00
2024-05-09T02:28:10.056Z,624.00
2024-05-09T02:29:10.043Z,622.00
2024-05-09T02:30:18.680Z,618.00
2024-05-09T02:31:11.028Z,618.00
2024-05-09T02:32:10.168Z,618.00
2024-05-09T02:33:11.973Z,620.00
2024-05-09T02:34:10.131Z,618.00
2024-05-09T02:35:10.143Z,618.00
2024-05-09T02:36:10.032Z,619.00
2024-05-09T02:37:10.053Z,620.00
2024-05-09T02:38:10.454Z,620.00
2024-05-09T02:39:10.060Z,620.00
2024-05-09T02:40:14.601Z,616.00
2024-05-09T02:41:11.203Z,616.00
2024-05-09T02:42:10.052Z,618.00
2024-05-09T02:43:11.297Z,619.00
2024-05-09T02:44:10.080Z,619.00
2024-05-09T02:45:10.072Z,619.00
2024-05-09T02:46:10.058Z,618.00
2024-05-09T02:47:10.155Z,617.00
2024-05-09T02:48:10.261Z,619.00
2024-05-09T02:49:10.182Z,618.00
2024-05-09T02:50:13.298Z,615.00
2024-05-09T02:51:11.267Z,615.00
2024-05-09T02:52:10.109Z,616.00
2024-05-09T02:53:10.330Z,616.00
2024-05-09T02:54:10.102Z,619.00
2024-05-09T02:55:10.071Z,618.00
2024-05-09T02:56:10.157Z,619.00
2024-05-09T02:57:10.110Z,618.00
2024-05-09T02:58:10.295Z,619.00
2024-05-09T02:59:10.131Z,617.00
2024-05-09T03:00:18.304Z,618.00
2024-05-09T03:01:11.155Z,618.00
2024-05-09T03:02:10.309Z,618.00
2024-05-09T03:03:12.414Z,618.00
2024-05-09T03:04:10.186Z,619.00
2024-05-09T03:05:10.138Z,617.00
2024-05-09T03:06:10.111Z,619.00
2024-05-09T03:07:10.095Z,619.00
2024-05-09T03:08:10.179Z,619.00
2024-05-09T03:09:10.128Z,617.00
2024-05-09T03:10:18.010Z,618.00
2024-05-09T03:11:11.218Z,618.00
2024-05-09T03:12:10.309Z,619.00
2024-05-09T03:13:10.114Z,618.00
2024-05-09T03:14:10.141Z,614.00
2024-05-09T03:15:10.099Z,618.00
2024-05-09T03:16:10.103Z,615.00
2024-05-09T03:17:10.152Z,616.00
2024-05-09T03:18:10.286Z,612.00
2024-05-09T03:19:10.254Z,616.00
2024-05-09T03:20:17.441Z,616.00
2024-05-09T03:21:11.215Z,616.00
2024-05-09T03:22:10.102Z,616.00
2024-05-09T03:23:10.486Z,615.00
2024-05-09T03:24:10.104Z,613.00
2024-05-09T03:25:10.122Z,616.00
2024-05-09T03:26:10.186Z,615.00
2024-05-09T03:27:10.105Z,616.00
2024-05-09T03:28:10.177Z,613.00
2024-05-09T03:29:10.158Z,613.00
2024-05-09T03:30:10.194Z,612.00
2024-05-09T03:31:10.203Z,617.00
2024-05-09T03:32:10.380Z,613.00
2024-05-09T03:33:10.558Z,613.00
2024-05-09T03:34:10.382Z,615.00
2024-05-09T03:35:10.435Z,613.00
2024-05-09T03:36:11.427Z,608.00
2024-05-09T03:37:10.545Z,615.00
2024-05-09T03:38:10.735Z,615.00
2024-05-09T03:39:10.647Z,611.00
2024-05-09T03:40:17.675Z,608.00
2024-05-09T03:41:11.761Z,608.00
2024-05-09T03:42:10.799Z,609.00
2024-05-09T03:43:10.720Z,610.00
2024-05-09T03:44:10.769Z,608.00
2024-05-09T03:45:10.691Z,609.00
2024-05-09T03:46:10.700Z,612.00
2024-05-09T03:47:10.749Z,608.00
2024-05-09T03:48:11.048Z,616.00
2024-05-09T03:49:10.852Z,606.00
2024-05-09T03:50:18.257Z,614.00
2024-05-09T03:51:11.883Z,614.00
2024-05-09T03:52:10.764Z,614.00
2024-05-09T03:53:10.998Z,614.00
2024-05-09T03:54:10.754Z,613.00
2024-05-09T03:55:10.765Z,614.00
2024-05-09T03:56:10.822Z,612.00
2024-05-09T03:57:10.742Z,610.00
2024-05-09T03:58:10.732Z,606.00
2024-05-09T03:59:10.988Z,610.00
2024-05-09T04:00:17.844Z,612.00
2024-05-09T04:01:11.871Z,612.00
2024-05-09T04:02:10.849Z,609.00
2024-05-09T04:03:12.494Z,613.00
2024-05-09T04:04:11.074Z,609.00
2024-05-09T04:05:11.035Z,612.00
2024-05-09T04:06:11.095Z,611.00
2024-05-09T04:07:11.182Z,610.00
2024-05-09T04:08:11.636Z,610.00
2024-05-09T04:09:11.269Z,611.00
2024-05-09T04:10:20.661Z,613.00
2024-05-09T04:11:12.610Z,612.00
2024-05-09T04:12:11.471Z,612.00
2024-05-09T04:13:11.402Z,612.00
2024-05-09T04:14:11.405Z,611.00
2024-05-09T04:15:13.375Z,608.00
2024-05-09T04:16:11.346Z,610.00
2024-05-09T04:17:11.482Z,609.00
2024-05-09T04:18:11.532Z,606.00
2024-05-09T04:19:11.642Z,603.00
2024-05-09T04:20:21.116Z,606.00
2024-05-09T04:21:12.617Z,606.00
2024-05-09T04:22:11.534Z,607.00
2024-05-09T04:23:11.918Z,608.00
2024-05-09T04:24:11.543Z,608.00
2024-05-09T04:25:11.546Z,607.00
2024-05-09T04:26:11.596Z,608.00
2024-05-09T04:27:11.558Z,608.00
2024-05-09T04:28:11.541Z,607.00
2024-05-09T04:29:11.615Z,608.00
2024-05-09T04:30:18.949Z,605.00
2024-05-09T04:31:12.601Z,605.00
2024-05-09T04:32:11.999Z,605.00
2024-05-09T04:33:13.602Z,607.00
2024-05-09T04:34:11.744Z,608.00
2024-05-09T04:35:11.721Z,610.00
2024-05-09T04:36:11.630Z,607.00
2024-05-09T04:37:11.627Z,606.00
2024-05-09T04:38:11.712Z,606.00
2024-05-09T04:39:11.613Z,607.00
2024-05-09T04:40:27.795Z,600.00
2024-05-09T04:41:19.949Z,600.00
2024-05-09T04:42:18.895Z,600.00
2024-05-09T04:43:19.143Z,600.00
2024-05-09T04:44:18.940Z,600.00
2024-05-09T04:45:18.909Z,600.00
2024-05-09T04:46:18.934Z,600.00
2024-05-09T04:47:18.995Z,602.00
2024-05-09T04:48:19.027Z,600.00
2024-05-09T04:49:19.061Z,600.00
2024-05-09T04:50:29.031Z,600.00
2024-05-09T04:51:20.056Z,600.00
2024-05-09T04:52:19.057Z,600.00
2024-05-09T04:53:19.112Z,600.00
2024-05-09T04:55:19.072Z,597.00
2024-05-09T04:56:19.138Z,600.00
2024-05-09T04:57:19.042Z,601.00
2024-05-09T04:58:19.107Z,603.00
2024-05-09T04:59:19.160Z,603.00
2024-05-09T05:00:28.570Z,603.00
2024-05-09T05:01:20.124Z,603.00
2024-05-09T05:02:19.167Z,604.00
2024-05-09T05:03:19.370Z,604.00
2024-05-09T05:04:19.139Z,604.00
2024-05-09T05:05:19.154Z,604.00
2024-05-09T05:06:19.089Z,604.00
2024-05-09T05:07:19.088Z,603.00
2024-05-09T05:08:19.651Z,603.00
2024-05-09T05:09:19.100Z,601.00
2024-05-09T05:10:25.440Z,601.00
2024-05-09T05:11:20.252Z,601.00
2024-05-09T05:12:19.292Z,602.00
2024-05-09T05:13:20.258Z,603.00
2024-05-09T05:14:19.209Z,603.00
2024-05-09T05:15:19.186Z,605.00
2024-05-09T05:16:19.228Z,601.00
2024-05-09T05:17:19.378Z,602.00
2024-05-09T05:18:19.774Z,605.00
2024-05-09T05:19:19.453Z,602.00
2024-05-09T05:20:27.398Z,605.00
2024-05-09T05:21:20.551Z,605.00
2024-05-09T05:22:19.442Z,605.00
2024-05-09T05:23:19.620Z,605.00
2024-05-09T05:24:19.465Z,607.00
2024-05-09T05:25:19.459Z,602.00
2024-05-09T05:26:19.502Z,606.00
2024-05-09T05:27:19.500Z,602.00
2024-05-09T05:28:19.487Z,601.00
2024-05-09T05:29:20.818Z,602.00
2024-05-09T05:30:25.074Z,602.00
2024-05-09T05:31:20.684Z,602.00
2024-05-09T05:32:19.753Z,603.00
2024-05-09T05:33:20.112Z,604.00
2024-05-09T05:34:19.556Z,605.00
2024-05-09T05:35:19.604Z,607.00
2024-05-09T05:36:19.578Z,606.00
2024-05-09T05:37:19.582Z,600.00
2024-05-09T05:38:21.911Z,604.00
2024-05-09T05:39:19.594Z,604.00
2024-05-09T05:40:28.154Z,604.00
2024-05-09T05:41:20.587Z,604.00
2024-05-09T05:42:19.595Z,605.00
2024-05-09T05:43:19.606Z,604.00
2024-05-09T05:44:19.681Z,607.00
2024-05-09T05:45:19.590Z,608.00
2024-05-09T05:46:19.599Z,607.00
2024-05-09T05:47:19.777Z,603.00
2024-05-09T05:48:19.863Z,604.00
2024-05-09T05:49:19.853Z,604.00
2024-05-09T05:50:27.406Z,602.00
2024-05-09T05:51:20.829Z,603.00
2024-05-09T05:52:19.723Z,603.00
2024-05-09T05:53:19.754Z,602.00
2024-05-09T05:54:20.012Z,600.00
2024-05-09T05:55:19.726Z,599.00
2024-05-09T05:56:19.790Z,600.00
2024-05-09T05:57:19.731Z,600.00
2024-05-09T05:58:19.754Z,603.00
2024-05-09T05:59:19.776Z,604.00
2024-05-09T06:00:29.224Z,606.00
2024-05-09T06:01:20.877Z,606.00
2024-05-09T06:02:19.824Z,606.00
2024-05-09T06:03:19.797Z,606.00
2024-05-09T06:04:19.833Z,606.00
2024-05-09T06:05:19.800Z,603.00
2024-05-09T06:06:19.766Z,604.00
2024-05-09T06:07:19.735Z,601.00
2024-05-09T06:08:19.767Z,604.00
2024-05-09T06:09:19.722Z,600.00
2024-05-09T06:10:25.448Z,602.00
2024-05-09T06:11:20.851Z,602.00
2024-05-09T06:12:19.834Z,603.00
2024-05-09T06:13:19.773Z,603.00
2024-05-09T06:14:19.788Z,604.00
2024-05-09T06:15:19.753Z,602.00
2024-05-09T06:16:19.780Z,605.00
2024-05-09T06:17:19.863Z,603.00
2024-05-09T06:18:20.063Z,606.00
2024-05-09T06:19:19.970Z,607.00
2024-05-09T06:20:24.078Z,606.00
2024-05-09T06:21:20.925Z,606.00
2024-05-09T06:22:19.790Z,606.00
2024-05-09T06:23:19.879Z,606.00
2024-05-09T06:24:19.775Z,608.00
2024-05-09T06:25:19.803Z,607.00
2024-05-09T06:26:19.790Z,605.00
2024-05-09T06:27:19.803Z,606.00
2024-05-09T06:28:19.791Z,608.00
2024-05-09T06:29:19.879Z,605.00
2024-05-09T06:30:26.284Z,606.00
2024-05-09T06:31:20.828Z,606.00
2024-05-09T06:32:19.941Z,604.00
2024-05-09T06:33:19.885Z,606.00
2024-05-09T06:34:19.872Z,604.00
2024-05-09T06:35:19.933Z,602.00
2024-05-09T06:36:19.840Z,606.00
2024-05-09T06:37:19.846Z,601.00
2024-05-09T06:38:19.892Z,603.00
2024-05-09T06:39:19.854Z,603.00
2024-05-09T06:40:25.688Z,604.00
2024-05-09T06:41:20.954Z,604.00
2024-05-09T06:42:19.866Z,604.00
2024-05-09T06:43:20.159Z,604.00
2024-05-09T06:44:19.961Z,600.00
2024-05-09T06:45:19.893Z,599.00
2024-05-09T06:46:19.890Z,601.00
2024-05-09T06:47:19.946Z,605.00
2024-05-09T06:48:20.485Z,603.00
2024-05-09T06:49:20.087Z,602.00
2024-05-09T06:50:24.142Z,601.00
2024-05-09T06:51:20.993Z,601.00
2024-05-09T06:52:19.896Z,601.00
2024-05-09T06:53:19.955Z,601.00
2024-05-09T06:54:19.891Z,600.00
2024-05-09T06:55:19.898Z,602.00
2024-05-09T06:56:19.974Z,600.00
2024-05-09T06:57:19.898Z,601.00
2024-05-09T06:58:19.917Z,600.00
2024-05-09T06:59:19.943Z,601.00
2024-05-09T07:00:27.700Z,602.00
2024-05-09T07:01:21.008Z,602.00
2024-05-09T07:02:19.978Z,603.00
2024-05-09T07:03:20.239Z,602.00
2024-05-09T07:04:20.165Z,603.00
2024-05-09T07:05:19.973Z,606.00
2024-05-09T07:06:19.921Z,605.00
2024-05-09T07:07:19.935Z,604.00
2024-05-09T07:08:20.028Z,603.00
2024-05-09T07:09:19.938Z,606.00
2024-05-09T07:10:28.442Z,603.00
2024-05-09T07:11:21.029Z,604.00
2024-05-09T07:12:20.042Z,604.00
2024-05-09T07:13:19.930Z,605.00
2024-05-09T07:14:19.928Z,608.00
2024-05-09T07:15:19.934Z,604.00
2024-05-09T07:16:19.920Z,605.00
2024-05-09T07:17:20.023Z,606.00
2024-05-09T07:18:20.673Z,607.00
2024-05-09T07:19:20.120Z,607.00
2024-05-09T07:20:27.585Z,603.00
2024-05-09T07:21:20.978Z,603.00
2024-05-09T07:22:19.929Z,604.00
2024-05-09T07:23:20.017Z,604.00
2024-05-09T07:24:19.944Z,604.00
2024-05-09T07:25:19.935Z,605.00
2024-05-09T07:26:20.079Z,607.00
2024-05-09T07:27:19.952Z,607.00
2024-05-09T07:28:19.974Z,602.00
2024-05-09T07:29:19.970Z,605.00
2024-05-09T07:30:27.094Z,601.00
2024-05-09T07:31:20.935Z,601.00
2024-05-09T07:32:20.068Z,602.00
2024-05-09T07:33:21.509Z,602.00
2024-05-09T07:34:20.079Z,604.00
2024-05-09T07:35:20.040Z,603.00
2024-05-09T07:36:19.945Z,605.00
2024-05-09T07:37:19.938Z,604.00
2024-05-09T07:38:20.146Z,603.00
2024-05-09T07:39:19.931Z,608.00
2024-05-09T07:40:28.601Z,602.00
2024-05-09T07:41:21.084Z,602.00
2024-05-09T07:42:19.956Z,603.00
2024-05-09T07:43:19.986Z,603.00
2024-05-09T07:44:20.015Z,606.00
2024-05-09T07:45:39.907Z,606.00
2024-05-09T07:47:14.627Z,602.00
2024-05-09T07:48:32.067Z,602.00
2024-05-09T07:53:38.542Z,603.00
2024-05-09T07:54:21.124Z,603.00
2024-05-09T07:55:20.065Z,605.00
2024-05-09T07:56:22.389Z,608.00
2024-05-09T07:57:20.120Z,603.00
2024-05-09T07:58:20.082Z,604.00
2024-05-09T07:59:20.001Z,606.00
2024-05-09T08:00:26.822Z,607.00
2024-05-09T08:01:21.480Z,602.00
2024-05-09T08:02:20.203Z,604.00
2024-05-09T08:03:20.105Z,605.00
2024-05-09T08:04:21.314Z,610.00
2024-05-09T08:05:20.153Z,609.00
2024-05-09T08:06:20.059Z,604.00
2024-05-09T08:07:20.131Z,606.00
2024-05-09T08:08:20.062Z,606.00
2024-05-09T08:09:21.491Z,604.00
2024-05-09T08:10:24.663Z,602.00
2024-05-09T08:11:21.198Z,602.00
2024-05-09T08:12:20.144Z,603.00
2024-05-09T08:13:20.224Z,603.00
2024-05-09T08:14:20.131Z,601.00
2024-05-09T08:15:20.134Z,601.00
2024-05-09T08:16:20.269Z,600.00
2024-05-09T08:17:20.153Z,604.00
2024-05-09T08:18:20.381Z,603.00
2024-05-09T08:19:20.452Z,602.00
2024-05-09T08:20:30.098Z,602.00
2024-05-09T08:21:21.170Z,603.00
2024-05-09T08:22:20.242Z,602.00
2024-05-09T08:23:20.156Z,604.00
2024-05-09T08:24:20.150Z,604.00
2024-05-09T08:25:20.182Z,604.00
2024-05-09T08:26:20.187Z,605.00
2024-05-09T08:27:20.174Z,605.00
2024-05-09T08:28:20.234Z,602.00
2024-05-09T08:29:20.158Z,605.00
2024-05-09T08:30:25.399Z,602.00
2024-05-09T08:31:21.259Z,602.00
2024-05-09T08:32:20.198Z,602.00
2024-05-09T08:33:20.310Z,598.00
2024-05-09T08:34:20.296Z,599.00
2024-05-09T08:35:20.161Z,604.00
2024-05-09T08:36:20.176Z,601.00
2024-05-09T08:37:23.398Z,601.00
2024-05-09T08:38:21.251Z,602.00
2024-05-09T08:39:20.179Z,602.00
2024-05-09T08:40:28.103Z,602.00
2024-05-09T08:41:21.198Z,602.00
2024-05-09T08:42:20.182Z,602.00
2024-05-09T08:43:20.386Z,602.00
2024-05-09T08:44:20.183Z,605.00
2024-05-09T08:45:20.201Z,603.00
2024-05-09T08:46:20.415Z,601.00
2024-05-09T08:47:20.198Z,605.00
2024-05-09T08:48:20.400Z,603.00
2024-05-09T08:49:20.444Z,604.00
2024-05-09T08:50:29.249Z,607.00
2024-05-09T08:51:21.209Z,607.00
2024-05-09T08:52:20.209Z,607.00
2024-05-09T08:53:20.190Z,607.00
2024-05-09T08:54:20.222Z,603.00
2024-05-09T08:55:20.194Z,602.00
2024-05-09T08:56:20.220Z,605.00
2024-05-09T08:57:20.208Z,602.00
2024-05-09T08:58:20.607Z,604.00
2024-05-09T08:59:20.183Z,607.00
2024-05-09T09:00:29.589Z,607.00
2024-05-09T09:01:21.308Z,607.00
2024-05-09T09:02:20.357Z,605.00
2024-05-09T09:03:20.428Z,603.00
2024-05-09T09:04:20.303Z,603.00
2024-05-09T09:05:20.349Z,603.00
2024-05-09T09:06:20.210Z,606.00
2024-05-09T09:07:20.272Z,602.00
2024-05-09T09:08:20.221Z,608.00
2024-05-09T09:09:20.213Z,601.00
2024-05-09T09:10:29.041Z,602.00
2024-05-09T09:11:21.280Z,602.00
2024-05-09T09:12:20.227Z,603.00
2024-05-09T09:13:20.282Z,605.00
2024-05-09T09:14:20.223Z,603.00
2024-05-09T09:15:20.231Z,606.00
2024-05-09T09:16:20.336Z,607.00
2024-05-09T09:17:20.263Z,600.00
2024-05-09T09:18:20.294Z,607.00
2024-05-09T09:19:20.349Z,604.00
2024-05-09T09:20:26.363Z,603.00
2024-05-09T09:21:21.266Z,603.00
2024-05-09T09:22:20.277Z,604.00
2024-05-09T09:23:20.246Z,604.00
2024-05-09T09:24:20.249Z,604.00
2024-05-09T09:25:20.262Z,602.00
2024-05-09T09:26:20.235Z,607.00
2024-05-09T09:27:20.235Z,604.00
2024-05-09T09:28:20.247Z,602.00
2024-05-09T09:29:20.240Z,604.00
2024-05-09T09:30:31.769Z,602.00
2024-05-09T09:31:21.271Z,602.00
2024-05-09T09:32:20.280Z,603.00
2024-05-09T09:33:20.513Z,604.00
2024-05-09T09:34:20.444Z,604.00
2024-05-09T09:35:20.266Z,606.00
2024-05-09T09:36:20.265Z,603.00
2024-05-09T09:37:20.287Z,606.00
2024-05-09T09:38:20.264Z,602.00
2024-05-09T09:39:20.266Z,602.00
2024-05-09T09:40:22.345Z,603.00
2024-05-09T09:41:21.250Z,603.00
2024-05-09T09:42:20.263Z,603.00
2024-05-09T09:43:20.335Z,604.00
2024-05-09T09:44:20.265Z,604.00
2024-05-09T09:45:20.281Z,605.00
2024-05-09T09:46:20.355Z,603.00
2024-05-09T09:47:20.325Z,606.00
2024-05-09T09:48:20.499Z,605.00
2024-05-09T09:49:20.290Z,601.00
2024-05-09T09:50:27.530Z,600.00
2024-05-09T09:51:21.267Z,600.00
2024-05-09T09:52:20.386Z,601.00
2024-05-09T09:53:20.380Z,601.00
2024-05-09T09:54:20.287Z,605.00
2024-05-09T09:55:20.341Z,603.00
2024-05-09T09:56:20.325Z,601.00
2024-05-09T09:57:20.288Z,604.00
2024-05-09T09:58:20.382Z,604.00
2024-05-09T09:59:20.302Z,604.00
2024-05-09T10:00:26.820Z,604.00
2024-05-09T10:01:21.395Z,604.00
2024-05-09T10:02:20.398Z,605.00
2024-05-09T10:03:20.434Z,605.00
2024-05-09T10:04:20.386Z,605.00
2024-05-09T10:05:20.334Z,607.00
2024-05-09T10:06:20.303Z,605.00
2024-05-09T10:07:20.341Z,603.00
2024-05-09T10:08:20.287Z,605.00
2024-05-09T10:09:20.320Z,603.00
2024-05-09T10:10:27.063Z,602.00
2024-05-09T10:11:21.375Z,602.00
2024-05-09T10:12:20.356Z,602.00
2024-05-09T10:13:20.463Z,603.00
2024-05-09T10:14:20.300Z,602.00
2024-05-09T10:15:20.308Z,601.00
2024-05-09T10:16:20.448Z,606.00
2024-05-09T10:17:20.310Z,604.00
2024-05-09T10:18:20.372Z,600.00
2024-05-09T10:19:20.474Z,604.00
2024-05-09T10:20:24.702Z,601.00
2024-05-09T10:21:21.335Z,601.00
2024-05-09T10:22:20.322Z,602.00
2024-05-09T10:23:20.315Z,604.00
2024-05-09T10:24:20.327Z,605.00
2024-05-09T10:25:20.341Z,606.00
2024-05-09T10:26:20.322Z,607.00
2024-05-09T10:27:20.339Z,602.00
2024-05-09T10:28:20.413Z,606.00
2024-05-09T10:29:20.325Z,605.00
2024-05-09T10:30:26.112Z,606.00
2024-05-09T10:31:21.374Z,606.00
2024-05-09T10:32:20.429Z,606.00
2024-05-09T10:33:20.627Z,607.00
2024-05-09T10:34:20.720Z,604.00
2024-05-09T10:35:20.402Z,604.00
2024-05-09T10:36:20.320Z,606.00
2024-05-09T10:37:20.397Z,605.00
2024-05-09T10:38:20.351Z,608.00
2024-05-09T10:39:21.184Z,605.00
2024-05-09T10:40:26.315Z,605.00
2024-05-09T10:41:21.361Z,605.00
2024-05-09T10:42:20.345Z,604.00
2024-05-09T10:43:20.414Z,605.00
2024-05-09T10:44:20.327Z,608.00
2024-05-09T10:45:20.362Z,608.00
2024-05-09T10:46:20.574Z,606.00
2024-05-09T10:47:20.365Z,606.00
2024-05-09T10:48:20.412Z,603.00
2024-05-09T10:49:20.492Z,600.00
2024-05-09T10:50:28.062Z,605.00
2024-05-09T10:51:21.346Z,605.00
2024-05-09T10:52:20.452Z,605.00
2024-05-09T10:53:20.363Z,605.00
2024-05-09T10:54:20.361Z,608.00
2024-05-09T10:55:20.504Z,606.00
2024-05-09T10:56:20.346Z,606.00
2024-05-09T10:57:20.350Z,607.00
2024-05-09T10:58:20.422Z,605.00
2024-05-09T10:59:20.353Z,603.00
2024-05-09T11:00:27.570Z,603.00
2024-05-09T11:01:21.452Z,603.00
2024-05-09T11:02:20.422Z,604.00
2024-05-09T11:03:20.432Z,605.00
2024-05-09T11:04:20.649Z,606.00
2024-05-09T11:05:20.510Z,608.00
2024-05-09T11:06:20.381Z,607.00
2024-05-09T11:07:20.545Z,607.00
2024-05-09T11:08:20.380Z,608.00
2024-05-09T11:09:20.372Z,602.00
2024-05-09T11:10:27.408Z,606.00
2024-05-09T11:11:21.385Z,606.00
2024-05-09T11:12:22.853Z,606.00
2024-05-09T11:13:20.441Z,607.00
2024-05-09T11:14:20.391Z,607.00
2024-05-09T11:15:20.388Z,608.00
2024-05-09T11:16:21.035Z,604.00
2024-05-09T11:17:20.571Z,610.00
2024-05-09T11:18:23.627Z,609.00
2024-05-09T11:19:20.508Z,609.00
2024-05-09T11:20:26.897Z,610.00
2024-05-09T11:21:21.398Z,609.00
2024-05-09T11:22:20.544Z,610.00
2024-05-09T11:23:20.370Z,609.00
2024-05-09T11:24:20.403Z,606.00
2024-05-09T11:25:20.471Z,605.00
2024-05-09T11:26:20.402Z,609.00
2024-05-09T11:27:20.408Z,607.00
2024-05-09T11:28:20.425Z,607.00
2024-05-09T11:29:20.416Z,608.00
2024-05-09T11:30:27.033Z,607.00
2024-05-09T11:31:21.760Z,607.00
2024-05-09T11:32:20.451Z,608.00
2024-05-09T11:33:20.493Z,608.00
2024-05-09T11:34:20.469Z,607.00
2024-05-09T11:35:20.419Z,606.00
2024-05-09T11:36:20.434Z,605.00
2024-05-09T11:37:20.490Z,605.00
2024-05-09T11:38:20.415Z,602.00
2024-05-09T11:39:20.395Z,611.00
2024-05-09T11:40:25.423Z,604.00
2024-05-09T11:41:21.431Z,604.00
2024-05-09T11:42:20.438Z,604.00
2024-05-09T11:43:20.529Z,605.00
2024-05-09T11:44:20.447Z,606.00
2024-05-09T11:45:20.443Z,603.00
2024-05-09T11:46:20.462Z,604.00
2024-05-09T11:47:20.570Z,604.00
2024-05-09T11:48:20.617Z,601.00
2024-05-09T11:49:21.984Z,603.00
2024-05-09T11:50:27.136Z,608.00
2024-05-09T11:51:21.641Z,608.00
2024-05-09T11:52:20.707Z,608.00
2024-05-09T11:53:20.660Z,608.00
2024-05-09T11:54:20.667Z,605.00
2024-05-09T11:55:22.045Z,607.00
2024-05-09T11:56:20.800Z,605.00
2024-05-09T11:57:20.782Z,604.00
2024-05-09T11:58:20.915Z,605.00
2024-05-09T11:59:20.796Z,604.00
2024-05-09T12:00:29.240Z,604.00
2024-05-09T12:01:23.712Z,604.00
2024-05-09T12:02:20.929Z,604.00
2024-05-09T12:03:20.917Z,605.00
2024-05-09T12:04:20.996Z,605.00
2024-05-09T12:05:21.090Z,608.00
2024-05-09T12:06:20.825Z,606.00
2024-05-09T12:07:20.936Z,606.00
2024-05-09T12:08:20.845Z,608.00
2024-05-09T12:09:20.842Z,604.00
2024-05-09T12:10:26.059Z,608.00
2024-05-09T12:11:21.868Z,608.00
2024-05-09T12:12:20.825Z,608.00
2024-05-09T12:13:20.924Z,609.00
2024-05-09T12:14:20.845Z,609.00
2024-05-09T12:15:20.873Z,604.00
2024-05-09T12:16:20.943Z,606.00
2024-05-09T12:17:21.012Z,607.00
2024-05-09T12:18:20.851Z,606.00
2024-05-09T12:19:20.885Z,604.00
2024-05-09T12:20:28.602Z,605.00
2024-05-09T12:21:21.837Z,605.00
2024-05-09T12:22:20.881Z,606.00
2024-05-09T12:23:20.869Z,606.00
2024-05-09T12:24:20.839Z,606.00
2024-05-09T12:25:20.884Z,607.00
2024-05-09T12:26:20.845Z,607.00
2024-05-09T12:27:20.854Z,607.00
2024-05-09T12:28:20.890Z,605.00
2024-05-09T12:29:20.856Z,605.00
2024-05-09T12:30:32.568Z,610.00
2024-05-09T12:31:21.924Z,610.00
2024-05-09T12:32:20.888Z,607.00
2024-05-09T12:33:21.043Z,609.00
2024-05-09T12:34:20.961Z,611.00